sensor_id;sensor_type;location;lat;lon;timestamp;pressure;altitude;pressure_sealevel;temperature;humidity
13594;BME280;6449;47.666;9.160;2023-06-22T00:03:10;96865.41;;;21.91;100.00
13594;BME280;6449;47.666;9.160;2023-06-22T00:08:04;96858.28;;;21.98;100.00
13594;BME280;6449;47.666;9.160;2023-06-22T00:12:58;96857.69;;;21.81;100.00
13594;BME280;6449;47.666;9.160;2023-06-22T00:17:52;96853.25;;;21.88;100.00
13594;BME280;6449;47.666;9.160;2023-06-22T00:22:46;96855.44;;;22.00;100.00
13594;BME280;6449;47.666;9.160;2023-06-22T00:27:40;96844.69;;;21.93;100.00
13594;BME280;6449;47.666;9.160;2023-06-22T00:32:33;96852.31;;;21.96;100.00
13594;BME280;6449;47.666;9.160;2023-06-22T00:37:28;96847.69;;;22.05;100.00
13594;BME280;6449;47.666;9.160;2023-06-22T00:42:22;96857.72;;;22.03;100.00
13594;BME280;6449;47.666;9.160;2023-06-22T00:47:17;96860.63;;;21.86;100.00
13594;BME280;6449;47.666;9.160;2023-06-22T00:52:11;96852.56;;;21.80;100.00
13594;BME280;6449;47.666;9.160;2023-06-22T00:57:07;96850.81;;;21.72;100.00
13594;BME280;6449;47.666;9.160;2023-06-22T01:02:03;96853.69;;;21.70;100.00
13594;BME280;6449;47.666;9.160;2023-06-22T01:07:07;96864.69;;;21.82;100.00
13594;BME280;6449;47.666;9.160;2023-06-22T01:12:09;96858.44;;;21.75;100.00
13594;BME280;6449;47.666;9.160;2023-06-22T01:17:08;96862.34;;;21.58;100.00
13594;BME280;6449;47.666;9.160;2023-06-22T01:22:03;96860.78;;;21.63;100.00
13594;BME280;6449;47.666;9.160;2023-06-22T01:27:16;96864.84;;;21.44;100.00
13594;BME280;6449;47.666;9.160;2023-06-22T01:32:15;96873.59;;;21.53;100.00
13594;BME280;6449;47.666;9.160;2023-06-22T01:37:10;96879.47;;;21.49;100.00
13594;BME280;6449;47.666;9.160;2023-06-22T01:42:04;96877.34;;;21.44;100.00
13594;BME280;6449;47.666;9.160;2023-06-22T01:46:58;96886.28;;;21.36;100.00
13594;BME280;6449;47.666;9.160;2023-06-22T01:51:53;96885.00;;;21.32;100.00
13594;BME280;6449;47.666;9.160;2023-06-22T01:56:47;96897.81;;;21.29;100.00
13594;BME280;6449;47.666;9.160;2023-06-22T02:01:44;96890.91;;;21.19;100.00
13594;BME280;6449;47.666;9.160;2023-06-22T02:06:47;96894.47;;;20.97;100.00
13594;BME280;6449;47.666;9.160;2023-06-22T02:11:47;96897.34;;;20.96;100.00
13594;BME280;6449;47.666;9.160;2023-06-22T02:16:44;96890.66;;;21.00;100.00
13594;BME280;6449;47.666;9.160;2023-06-22T02:21:39;96894.03;;;21.08;100.00
13594;BME280;6449;47.666;9.160;2023-06-22T02:26:32;96908.66;;;21.12;100.00
13594;BME280;6449;47.666;9.160;2023-06-22T02:31:27;96901.56;;;20.90;100.00
13594;BME280;6449;47.666;9.160;2023-06-22T02:36:23;96906.31;;;20.80;100.00
13594;BME280;6449;47.666;9.160;2023-06-22T02:41:18;96915.22;;;20.72;100.00
13594;BME280;6449;47.666;9.160;2023-06-22T02:46:12;96923.25;;;20.64;100.00
13594;BME280;6449;47.666;9.160;2023-06-22T02:51:07;96910.06;;;20.48;100.00
13594;BME280;6449;47.666;9.160;2023-06-22T02:56:02;96917.34;;;20.54;100.00
13594;BME280;6449;47.666;9.160;2023-06-22T03:00:57;96917.84;;;20.57;100.00
13594;BME280;6449;47.666;9.160;2023-06-22T03:05:56;96913.41;;;20.41;100.00
13594;BME280;6449;47.666;9.160;2023-06-22T03:10:51;96920.94;;;20.61;100.00
13594;BME280;6449;47.666;9.160;2023-06-22T03:15:44;96905.47;;;20.33;100.00
13594;BME280;6449;47.666;9.160;2023-06-22T03:20:38;96897.44;;;20.41;100.00
13594;BME280;6449;47.666;9.160;2023-06-22T03:25:32;96901.09;;;20.18;100.00
13594;BME280;6449;47.666;9.160;2023-06-22T03:30:27;96903.50;;;20.04;100.00
13594;BME280;6449;47.666;9.160;2023-06-22T03:35:21;96892.16;;;20.10;100.00
13594;BME280;6449;47.666;9.160;2023-06-22T03:40:14;96901.38;;;20.23;100.00
13594;BME280;6449;47.666;9.160;2023-06-22T03:45:09;96918.72;;;20.19;100.00
13594;BME280;6449;47.666;9.160;2023-06-22T03:50:06;96896.28;;;20.13;100.00
13594;BME280;6449;47.666;9.160;2023-06-22T03:54:59;96892.44;;;19.93;100.00
13594;BME280;6449;47.666;9.160;2023-06-22T03:59:56;96890.81;;;20.14;100.00
13594;BME280;6449;47.666;9.160;2023-06-22T04:04:50;96897.38;;;20.27;100.00
13594;BME280;6449;47.666;9.160;2023-06-22T04:09:45;96905.75;;;19.93;100.00
13594;BME280;6449;47.666;9.160;2023-06-22T04:14:38;96891.97;;;20.12;100.00
13594;BME280;6449;47.666;9.160;2023-06-22T04:19:31;96886.44;;;19.91;100.00
13594;BME280;6449;47.666;9.160;2023-06-22T04:24:25;96889.03;;;20.30;100.00
13594;BME280;6449;47.666;9.160;2023-06-22T04:29:20;96859.72;;;20.07;100.00
13594;BME280;6449;47.666;9.160;2023-06-22T04:34:20;96869.50;;;20.14;100.00
13594;BME280;6449;47.666;9.160;2023-06-22T04:39:15;96848.50;;;20.20;100.00
13594;BME280;6449;47.666;9.160;2023-06-22T04:44:12;96880.06;;;20.54;100.00
13594;BME280;6449;47.666;9.160;2023-06-22T04:49:08;96871.78;;;20.49;100.00
13594;BME280;6449;47.666;9.160;2023-06-22T04:54:03;96874.78;;;20.46;100.00
13594;BME280;6449;47.666;9.160;2023-06-22T04:58:58;96868.91;;;20.27;100.00
13594;BME280;6449;47.666;9.160;2023-06-22T05:03:51;96852.91;;;20.73;100.00
13594;BME280;6449;47.666;9.160;2023-06-22T05:08:49;96864.53;;;20.95;100.00
13594;BME280;6449;47.666;9.160;2023-06-22T05:13:42;96868.41;;;21.22;100.00
13594;BME280;6449;47.666;9.160;2023-06-22T05:18:36;96875.16;;;21.33;100.00
13594;BME280;6449;47.666;9.160;2023-06-22T05:23:29;96861.88;;;21.54;100.00
13594;BME280;6449;47.666;9.160;2023-06-22T05:28:24;96871.66;;;21.83;100.00
13594;BME280;6449;47.666;9.160;2023-06-22T05:33:17;96850.81;;;21.72;100.00
13594;BME280;6449;47.666;9.160;2023-06-22T05:38:11;96865.75;;;22.03;100.00
13594;BME280;6449;47.666;9.160;2023-06-22T05:43:04;96863.09;;;21.88;100.00
13594;BME280;6449;47.666;9.160;2023-06-22T05:47:59;96866.09;;;22.00;100.00
13594;BME280;6449;47.666;9.160;2023-06-22T05:52:53;96869.38;;;21.95;100.00
13594;BME280;6449;47.666;9.160;2023-06-22T05:57:47;96867.56;;;22.17;100.00
13594;BME280;6449;47.666;9.160;2023-06-22T06:02:40;96872.16;;;22.23;100.00
13594;BME280;6449;47.666;9.160;2023-06-22T06:07:37;96867.44;;;22.46;100.00
13594;BME280;6449;47.666;9.160;2023-06-22T06:12:31;96872.53;;;22.20;100.00
13594;BME280;6449;47.666;9.160;2023-06-22T06:17:24;96863.69;;;22.19;100.00
13594;BME280;6449;47.666;9.160;2023-06-22T06:22:17;96871.13;;;22.24;100.00
13594;BME280;6449;47.666;9.160;2023-06-22T06:27:14;96870.09;;;22.25;100.00
13594;BME280;6449;47.666;9.160;2023-06-22T06:32:08;96865.16;;;22.22;100.00
13594;BME280;6449;47.666;9.160;2023-06-22T06:37:02;96871.63;;;22.13;100.00
13594;BME280;6449;47.666;9.160;2023-06-22T06:41:56;96871.69;;;22.19;100.00
13594;BME280;6449;47.666;9.160;2023-06-22T06:46:50;96861.84;;;22.41;100.00
13594;BME280;6449;47.666;9.160;2023-06-22T06:51:46;96867.69;;;22.52;100.00
13594;BME280;6449;47.666;9.160;2023-06-22T06:56:39;96889.25;;;22.71;100.00
13594;BME280;6449;47.666;9.160;2023-06-22T07:01:40;96883.91;;;22.93;100.00
13594;BME280;6449;47.666;9.160;2023-06-22T07:06:35;96897.97;;;23.02;100.00
13594;BME280;6449;47.666;9.160;2023-06-22T07:11:28;96893.03;;;23.33;100.00
13594;BME280;6449;47.666;9.160;2023-06-22T07:16:21;96879.75;;;23.53;100.00
13594;BME280;6449;47.666;9.160;2023-06-22T07:21:15;96887.31;;;23.77;100.00
13594;BME280;6449;47.666;9.160;2023-06-22T07:26:25;96875.88;;;24.03;100.00
13594;BME280;6449;47.666;9.160;2023-06-22T07:31:18;96873.41;;;24.09;100.00
13594;BME280;6449;47.666;9.160;2023-06-22T07:36:13;96874.72;;;24.39;100.00
13594;BME280;6449;47.666;9.160;2023-06-22T07:41:06;96868.97;;;24.49;100.00
13594;BME280;6449;47.666;9.160;2023-06-22T07:46:02;96860.13;;;24.68;100.00
13594;BME280;6449;47.666;9.160;2023-06-22T07:50:55;96859.91;;;24.90;100.00
13594;BME280;6449;47.666;9.160;2023-06-22T07:55:49;96867.94;;;24.96;100.00
13594;BME280;6449;47.666;9.160;2023-06-22T08:00:42;96886.13;;;24.94;100.00
13594;BME280;6449;47.666;9.160;2023-06-22T08:05:37;96924.69;;;24.87;100.00
13594;BME280;6449;47.666;9.160;2023-06-22T08:10:31;96994.19;;;24.75;100.00
13594;BME280;6449;47.666;9.160;2023-06-22T08:15:27;96959.03;;;24.37;100.00
13594;BME280;6449;47.666;9.160;2023-06-22T08:20:22;96969.44;;;24.12;100.00
13594;BME280;6449;47.666;9.160;2023-06-22T08:25:17;97002.59;;;24.11;100.00
13594;BME280;6449;47.666;9.160;2023-06-22T08:30:11;96973.25;;;23.89;100.00
13594;BME280;6449;47.666;9.160;2023-06-22T08:35:06;96986.25;;;23.92;100.00
13594;BME280;6449;47.666;9.160;2023-06-22T08:40:02;96988.97;;;24.05;100.00
13594;BME280;6449;47.666;9.160;2023-06-22T08:44:59;96980.84;;;24.34;100.00
13594;BME280;6449;47.666;9.160;2023-06-22T08:49:52;96984.72;;;24.92;100.00
13594;BME280;6449;47.666;9.160;2023-06-22T08:55:35;96967.44;;;25.48;100.00
13594;BME280;6449;47.666;9.160;2023-06-22T09:00:38;96977.72;;;25.77;100.00
13594;BME280;6449;47.666;9.160;2023-06-22T09:05:31;96974.94;;;26.04;100.00
13594;BME280;6449;47.666;9.160;2023-06-22T09:10:25;96975.66;;;26.31;100.00
13594;BME280;6449;47.666;9.160;2023-06-22T09:15:21;96942.56;;;26.44;100.00
13594;BME280;6449;47.666;9.160;2023-06-22T09:20:16;96930.16;;;26.43;100.00
13594;BME280;6449;47.666;9.160;2023-06-22T09:25:10;96923.47;;;26.52;100.00
13594;BME280;6449;47.666;9.160;2023-06-22T09:30:05;96926.75;;;26.60;100.00
13594;BME280;6449;47.666;9.160;2023-06-22T09:35:03;96915.06;;;26.98;100.00
13594;BME280;6449;47.666;9.160;2023-06-22T09:40:00;96918.13;;;26.77;100.00
13594;BME280;6449;47.666;9.160;2023-06-22T09:44:53;96911.16;;;26.69;100.00
13594;BME280;6449;47.666;9.160;2023-06-22T09:49:46;96902.22;;;26.75;100.00
13594;BME280;6449;47.666;9.160;2023-06-22T09:54:40;96890.66;;;26.75;100.00
13594;BME280;6449;47.666;9.160;2023-06-22T09:59:35;96880.00;;;26.86;100.00
13594;BME280;6449;47.666;9.160;2023-06-22T10:04:28;96878.28;;;26.92;100.00
13594;BME280;6449;47.666;9.160;2023-06-22T10:09:22;96877.25;;;27.36;100.00
13594;BME280;6449;47.666;9.160;2023-06-22T10:14:16;96871.59;;;27.63;100.00
13594;BME280;6449;47.666;9.160;2023-06-22T10:19:10;96870.09;;;27.85;100.00
13594;BME280;6449;47.666;9.160;2023-06-22T10:24:04;96876.16;;;27.99;100.00
13594;BME280;6449;47.666;9.160;2023-06-22T10:28:59;96855.94;;;28.08;100.00
13594;BME280;6449;47.666;9.160;2023-06-22T10:33:57;96841.53;;;28.14;100.00
13594;BME280;6449;47.666;9.160;2023-06-22T10:38:52;96840.84;;;28.19;100.00
13594;BME280;6449;47.666;9.160;2023-06-22T10:43:47;96850.59;;;28.50;100.00
13594;BME280;6449;47.666;9.160;2023-06-22T10:48:43;96843.22;;;28.27;100.00
13594;BME280;6449;47.666;9.160;2023-06-22T10:54:30;96840.94;;;28.42;100.00
13594;BME280;6449;47.666;9.160;2023-06-22T11:00:06;96845.47;;;28.30;100.00
13594;BME280;6449;47.666;9.160;2023-06-22T11:05:30;96842.63;;;27.95;100.00
13594;BME280;6449;47.666;9.160;2023-06-22T11:10:51;96835.31;;;27.65;100.00
13594;BME280;6449;47.666;9.160;2023-06-22T11:15:57;96837.41;;;27.45;100.00
13594;BME280;6449;47.666;9.160;2023-06-22T11:21:03;96849.88;;;27.21;100.00
13594;BME280;6449;47.666;9.160;2023-06-22T11:26:18;96860.75;;;27.33;100.00
13594;BME280;6449;47.666;9.160;2023-06-22T11:39:14;96867.97;;;27.14;100.00
13594;BME280;6449;47.666;9.160;2023-06-22T11:43:37;96846.81;;;26.93;100.00
13594;BME280;6449;47.666;9.160;2023-06-22T11:48:32;96857.84;;;26.84;100.00
13594;BME280;6449;47.666;9.160;2023-06-22T11:53:34;96858.94;;;26.77;100.00
13594;BME280;6449;47.666;9.160;2023-06-22T11:58:28;96853.56;;;27.02;100.00
13594;BME280;6449;47.666;9.160;2023-06-22T12:03:23;96847.56;;;27.43;100.00
13594;BME280;6449;47.666;9.160;2023-06-22T12:08:16;96847.56;;;27.43;100.00
13594;BME280;6449;47.666;9.160;2023-06-22T12:13:10;96848.53;;;27.05;100.00
13594;BME280;6449;47.666;9.160;2023-06-22T12:18:12;96858.25;;;27.13;100.00
13594;BME280;6449;47.666;9.160;2023-06-22T12:23:17;96855.28;;;26.96;100.00
13594;BME280;6449;47.666;9.160;2023-06-22T12:28:11;96855.63;;;27.00;100.00
13594;BME280;6449;47.666;9.160;2023-06-22T12:33:08;96850.66;;;27.03;100.00
13594;BME280;6449;47.666;9.160;2023-06-22T12:38:01;96843.34;;;27.10;100.00
13594;BME280;6449;47.666;9.160;2023-06-22T12:42:56;96845.53;;;27.20;100.00
13594;BME280;6449;47.666;9.160;2023-06-22T12:47:50;96842.72;;;27.33;100.00
13594;BME280;6449;47.666;9.160;2023-06-22T12:52:43;96836.66;;;27.56;100.00
13594;BME280;6449;47.666;9.160;2023-06-22T12:57:40;96825.50;;;27.89;100.00
13594;BME280;6449;47.666;9.160;2023-06-22T13:02:35;96830.75;;;28.14;100.00
13594;BME280;6449;47.666;9.160;2023-06-22T13:07:29;96830.66;;;28.51;100.00
13594;BME280;6449;47.666;9.160;2023-06-22T13:12:22;96829.84;;;28.51;100.00
13594;BME280;6449;47.666;9.160;2023-06-22T13:17:16;96834.78;;;28.24;100.00
13594;BME280;6449;47.666;9.160;2023-06-22T13:22:28;96809.06;;;28.21;100.00
13594;BME280;6449;47.666;9.160;2023-06-22T13:27:22;96798.16;;;28.16;100.00
13594;BME280;6449;47.666;9.160;2023-06-22T13:32:15;96798.50;;;28.08;100.00
13594;BME280;6449;47.666;9.160;2023-06-22T13:37:09;96789.91;;;27.99;100.00
13594;BME280;6449;47.666;9.160;2023-06-22T13:42:04;96801.28;;;28.01;100.00
13594;BME280;6449;47.666;9.160;2023-06-22T13:46:58;96790.84;;;27.93;100.00
13594;BME280;6449;47.666;9.160;2023-06-22T13:51:51;96795.75;;;27.96;100.00
13594;BME280;6449;47.666;9.160;2023-06-22T13:56:45;96804.56;;;28.03;100.00
13594;BME280;6449;47.666;9.160;2023-06-22T14:01:39;96792.84;;;27.98;100.00
13594;BME280;6449;47.666;9.160;2023-06-22T14:06:33;96808.56;;;28.12;100.00
13594;BME280;6449;47.666;9.160;2023-06-22T14:11:27;96804.81;;;28.43;100.00
13594;BME280;6449;47.666;9.160;2023-06-22T14:16:20;96806.72;;;28.55;97.81
13594;BME280;6449;47.666;9.160;2023-06-22T14:21:15;96821.75;;;28.74;98.90
13594;BME280;6449;47.666;9.160;2023-06-22T14:26:08;96827.59;;;28.59;100.00
13594;BME280;6449;47.666;9.160;2023-06-22T14:31:02;96814.84;;;28.25;89.09
13594;BME280;6449;47.666;9.160;2023-06-22T14:35:55;96824.00;;;28.24;91.68
13594;BME280;6449;47.666;9.160;2023-06-22T14:40:50;96830.06;;;28.19;90.58
13594;BME280;6449;47.666;9.160;2023-06-22T14:46:03;96814.53;;;28.03;92.52
13594;BME280;6449;47.666;9.160;2023-06-22T14:50:57;96790.75;;;28.11;90.25
13594;BME280;6449;47.666;9.160;2023-06-22T14:55:53;96766.50;;;28.11;82.89
13594;BME280;6449;47.666;9.160;2023-06-22T15:00:48;96790.75;;;28.11;89.12
13594;BME280;6449;47.666;9.160;2023-06-22T15:05:42;96794.06;;;28.13;80.40
13594;BME280;6449;47.666;9.160;2023-06-22T15:10:36;96813.41;;;28.22;84.52
13594;BME280;6449;47.666;9.160;2023-06-22T15:15:31;96810.09;;;28.38;84.04
13594;BME280;6449;47.666;9.160;2023-06-22T15:20:25;96796.72;;;28.43;79.32
13594;BME280;6449;47.666;9.160;2023-06-22T15:25:19;96798.16;;;28.16;84.37
13594;BME280;6449;47.666;9.160;2023-06-22T15:30:12;96787.78;;;28.01;87.14
13594;BME280;6449;47.666;9.160;2023-06-22T15:35:08;96782.38;;;27.89;83.62
13594;BME280;6449;47.666;9.160;2023-06-22T15:40:01;96777.50;;;27.98;83.56
13594;BME280;6449;47.666;9.160;2023-06-22T15:44:55;96777.94;;;27.95;85.29
13594;BME280;6449;47.666;9.160;2023-06-22T15:49:49;96774.78;;;27.98;84.20
13594;BME280;6449;47.666;9.160;2023-06-22T15:54:44;96788.44;;;28.15;83.96
13594;BME280;6449;47.666;9.160;2023-06-22T15:59:37;96789.00;;;28.05;87.32
13594;BME280;6449;47.666;9.160;2023-06-22T16:04:31;96766.03;;;28.03;83.08
13594;BME280;6449;47.666;9.160;2023-06-22T16:09:24;96788.69;;;27.65;88.83
13594;BME280;6449;47.666;9.160;2023-06-22T16:14:19;96794.47;;;27.50;90.66
13594;BME280;6449;47.666;9.160;2023-06-22T16:19:13;96789.53;;;27.29;91.05
13594;BME280;6449;47.666;9.160;2023-06-22T16:24:07;96794.09;;;27.28;96.29
13594;BME280;6449;47.666;9.160;2023-06-22T16:29:00;96799.78;;;27.20;96.51
13594;BME280;6449;47.666;9.160;2023-06-22T16:33:55;96798.41;;;27.11;100.00
13594;BME280;6449;47.666;9.160;2023-06-22T16:38:48;96803.44;;;27.07;100.00
13594;BME280;6449;47.666;9.160;2023-06-22T16:43:42;96803.69;;;26.99;100.00
13594;BME280;6449;47.666;9.160;2023-06-22T16:48:36;96799.69;;;26.83;92.25
13594;BME280;6449;47.666;9.160;2023-06-22T16:53:31;96840.03;;;26.90;90.34
13594;BME280;6449;47.666;9.160;2023-06-22T16:58:28;96866.69;;;26.67;95.66
13594;BME280;6449;47.666;9.160;2023-06-22T17:03:26;96873.03;;;26.47;99.21
13594;BME280;6449;47.666;9.160;2023-06-22T17:08:21;96907.50;;;26.19;100.00
13594;BME280;6449;47.666;9.160;2023-06-22T17:13:16;96918.94;;;25.36;100.00
13594;BME280;6449;47.666;9.160;2023-06-22T17:18:12;96930.91;;;25.07;100.00
13594;BME280;6449;47.666;9.160;2023-06-22T17:23:06;96891.81;;;24.31;100.00
13594;BME280;6449;47.666;9.160;2023-06-22T17:28:00;96838.00;;;24.26;100.00
13594;BME280;6449;47.666;9.160;2023-06-22T17:32:56;96750.41;;;24.14;100.00
13594;BME280;6449;47.666;9.160;2023-06-22T17:37:52;96726.72;;;24.24;100.00
13594;BME280;6449;47.666;9.160;2023-06-22T17:42:46;96783.41;;;24.41;100.00
13594;BME280;6449;47.666;9.160;2023-06-22T17:47:39;96857.63;;;23.72;100.00
13594;BME280;6449;47.666;9.160;2023-06-22T17:52:34;96863.28;;;23.97;100.00
13594;BME280;6449;47.666;9.160;2023-06-22T17:57:35;96879.81;;;24.08;100.00
13594;BME280;6449;47.666;9.160;2023-06-22T18:02:28;96905.88;;;23.86;100.00
13594;BME280;6449;47.666;9.160;2023-06-22T18:07:23;96926.06;;;23.82;100.00
13594;BME280;6449;47.666;9.160;2023-06-22T18:12:19;96963.31;;;23.76;100.00
13594;BME280;6449;47.666;9.160;2023-06-22T18:17:13;96981.50;;;23.88;100.00
13594;BME280;6449;47.666;9.160;2023-06-22T18:22:09;97008.28;;;23.60;100.00
13594;BME280;6449;47.666;9.160;2023-06-22T18:27:04;97013.41;;;23.89;100.00
13594;BME280;6449;47.666;9.160;2023-06-22T18:32:00;97001.19;;;23.80;100.00
13594;BME280;6449;47.666;9.160;2023-06-22T18:36:59;96986.50;;;23.69;100.00
13594;BME280;6449;47.666;9.160;2023-06-22T18:41:55;96959.38;;;23.44;100.00
13594;BME280;6449;47.666;9.160;2023-06-22T18:46:51;96954.06;;;23.51;100.00
13594;BME280;6449;47.666;9.160;2023-06-22T18:51:54;96962.91;;;23.51;100.00
13594;BME280;6449;47.666;9.160;2023-06-22T18:56:55;96957.25;;;23.33;100.00
13594;BME280;6449;47.666;9.160;2023-06-22T19:01:59;97000.97;;;23.19;100.00
13594;BME280;6449;47.666;9.160;2023-06-22T19:06:57;97006.94;;;22.99;100.00
13594;BME280;6449;47.666;9.160;2023-06-22T19:12:23;97013.81;;;22.87;100.00
13594;BME280;6449;47.666;9.160;2023-06-22T19:17:19;97034.38;;;22.87;100.00
13594;BME280;6449;47.666;9.160;2023-06-22T19:22:15;97041.66;;;22.78;100.00
13594;BME280;6449;47.666;9.160;2023-06-22T19:27:08;97046.88;;;22.65;100.00
13594;BME280;6449;47.666;9.160;2023-06-22T19:32:03;97060.78;;;22.24;100.00
13594;BME280;6449;47.666;9.160;2023-06-22T19:36:59;97062.78;;;22.37;100.00
13594;BME280;6449;47.666;9.160;2023-06-22T19:41:54;97063.50;;;22.45;100.00
13594;BME280;6449;47.666;9.160;2023-06-22T19:46:47;97077.13;;;22.51;100.00
13594;BME280;6449;47.666;9.160;2023-06-22T19:51:42;97088.47;;;22.08;100.00
13594;BME280;6449;47.666;9.160;2023-06-22T19:56:36;97082.59;;;22.13;100.00
13594;BME280;6449;47.666;9.160;2023-06-22T20:01:30;97088.47;;;21.56;100.00
13594;BME280;6449;47.666;9.160;2023-06-22T20:06:24;97114.28;;;22.16;100.00
13594;BME280;6449;47.666;9.160;2023-06-22T20:11:25;97120.91;;;22.35;100.00
13594;BME280;6449;47.666;9.160;2023-06-22T20:16:20;97131.13;;;22.31;100.00
13594;BME280;6449;47.666;9.160;2023-06-22T20:21:15;97114.09;;;22.32;100.00
13594;BME280;6449;47.666;9.160;2023-06-22T20:26:11;97105.81;;;22.12;100.00
13594;BME280;6449;47.666;9.160;2023-06-22T20:31:09;97104.97;;;22.12;100.00
13594;BME280;6449;47.666;9.160;2023-06-22T20:36:06;97109.25;;;21.98;100.00
13594;BME280;6449;47.666;9.160;2023-06-22T20:41:03;97094.06;;;21.98;100.00
13594;BME280;6449;47.666;9.160;2023-06-22T20:45:58;97088.56;;;21.62;100.00
13594;BME280;6449;47.666;9.160;2023-06-22T20:50:51;97115.59;;;21.82;100.00
13594;BME280;6449;47.666;9.160;2023-06-22T20:55:49;97102.44;;;21.81;100.00
13594;BME280;6449;47.666;9.160;2023-06-22T21:00:44;97109.38;;;21.52;100.00
13594;BME280;6449;47.666;9.160;2023-06-22T21:05:39;97120.59;;;21.62;100.00
13594;BME280;6449;47.666;9.160;2023-06-22T21:10:33;97123.53;;;21.30;100.00
13594;BME280;6449;47.666;9.160;2023-06-22T21:15:26;97134.44;;;21.43;100.00
13594;BME280;6449;47.666;9.160;2023-06-22T21:20:21;97140.66;;;21.35;100.00
13594;BME280;6449;47.666;9.160;2023-06-22T21:25:15;97150.19;;;21.30;100.00
13594;BME280;6449;47.666;9.160;2023-06-22T21:30:10;97153.94;;;21.21;100.00
13594;BME280;6449;47.666;9.160;2023-06-22T21:35:05;97160.13;;;20.51;100.00
13594;BME280;6449;47.666;9.160;2023-06-22T21:40:03;97165.38;;;20.59;100.00
13594;BME280;6449;47.666;9.160;2023-06-22T21:44:57;97178.25;;;20.86;100.00
13594;BME280;6449;47.666;9.160;2023-06-22T21:49:50;97174.63;;;20.79;100.00
13594;BME280;6449;47.666;9.160;2023-06-22T21:54:44;97171.47;;;20.76;100.00
13594;BME280;6449;47.666;9.160;2023-06-22T21:59:38;97173.38;;;20.67;100.00
13594;BME280;6449;47.666;9.160;2023-06-22T22:04:32;97178.25;;;20.47;100.00
13594;BME280;6449;47.666;9.160;2023-06-22T22:09:25;97187.72;;;20.50;100.00
13594;BME280;6449;47.666;9.160;2023-06-22T22:14:18;97201.56;;;20.37;100.00
13594;BME280;6449;47.666;9.160;2023-06-22T22:19:13;97211.31;;;20.61;100.00
13594;BME280;6449;47.666;9.160;2023-06-22T22:24:07;97204.53;;;20.58;100.00
13594;BME280;6449;47.666;9.160;2023-06-22T22:29:00;97196.06;;;20.47;100.00
13594;BME280;6449;47.666;9.160;2023-06-22T22:33:54;97191.06;;;20.52;100.00
13594;BME280;6449;47.666;9.160;2023-06-22T22:38:48;97189.38;;;20.42;100.00
13594;BME280;6449;47.666;9.160;2023-06-22T22:43:42;97191.59;;;20.23;100.00
13594;BME280;6449;47.666;9.160;2023-06-22T22:48:35;97198.84;;;20.45;100.00
13594;BME280;6449;47.666;9.160;2023-06-22T22:53:29;97187.19;;;20.62;100.00
13594;BME280;6449;47.666;9.160;2023-06-22T22:58:24;97202.69;;;20.59;100.00
13594;BME280;6449;47.666;9.160;2023-06-22T23:03:17;97196.34;;;20.60;100.00
13594;BME280;6449;47.666;9.160;2023-06-22T23:08:11;97200.34;;;20.64;100.00
13594;BME280;6449;47.666;9.160;2023-06-22T23:13:05;97219.03;;;20.48;100.00
13594;BME280;6449;47.666;9.160;2023-06-22T23:18:00;97226.97;;;20.72;100.00
13594;BME280;6449;47.666;9.160;2023-06-22T23:22:55;97229.84;;;20.38;100.00
13594;BME280;6449;47.666;9.160;2023-06-22T23:27:50;97238.19;;;20.51;100.00
13594;BME280;6449;47.666;9.160;2023-06-22T23:32:46;97249.66;;;20.52;100.00
13594;BME280;6449;47.666;9.160;2023-06-22T23:37:42;97270.13;;;20.67;100.00
13594;BME280;6449;47.666;9.160;2023-06-22T23:42:37;97288.63;;;20.53;100.00
13594;BME280;6449;47.666;9.160;2023-06-22T23:47:31;97287.97;;;20.51;100.00
13594;BME280;6449;47.666;9.160;2023-06-22T23:52:24;97309.09;;;20.36;100.00
13594;BME280;6449;47.666;9.160;2023-06-22T23:57:19;97289.78;;;20.58;100.00
